Pewamo, Michigan
Current Conditions -  °F | °C
As of 3:54 AM on Saturday 25 Oct 2014 (Local Time) from KY70 Reporting Station
Overcast Overcast  
Wind Chill: 51°   Ceiling: 7000
Heat Index: 51°   Visibility: 7mi
Dew Point: 48°   Wind: 9mph
Humidity: 89%   Direction: 210°SSW
Pressure: 29.85"   Gusts: NA
Location:  43°N, 84.85°W
Report Text: KY70 250754Z AUTO 21008KT 7SM SCT037 BKN070 OVC080 11/09 A2985 RMK AO2 T01050087
Loading
Personal Weather Stations






























Interactive Weather Map
Tropical Storm Tracking
New forecast layout! Learn more

10-Day Weather Forecast

Advertisements
Track Severe Weather on mobile